sensor_id;sensor_type;location;lat;lon;timestamp;P1;durP1;ratioP1;P2;durP2;ratioP2
16015;SDS011;8112;53.592;10.184;2023-12-28T00:00:51;4.03;;;3.53;;
16015;SDS011;8112;53.592;10.184;2023-12-28T00:05:53;4.57;;;3.10;;
16015;SDS011;8112;53.592;10.184;2023-12-28T00:10:59;4.70;;;2.73;;
16015;SDS011;8112;53.592;10.184;2023-12-28T00:16:01;3.57;;;2.87;;
16015;SDS011;8112;53.592;10.184;2023-12-28T00:21:03;2.87;;;2.50;;
16015;SDS011;8112;53.592;10.184;2023-12-28T00:26:07;2.70;;;2.40;;
16015;SDS011;8112;53.592;10.184;2023-12-28T00:31:09;2.30;;;2.00;;
16015;SDS011;8112;53.592;10.184;2023-12-28T00:36:13;4.23;;;2.70;;
16015;SDS011;8112;53.592;10.184;2023-12-28T00:41:16;4.73;;;2.30;;
16015;SDS011;8112;53.592;10.184;2023-12-28T00:46:18;2.80;;;2.30;;
16015;SDS011;8112;53.592;10.184;2023-12-28T00:51:21;4.57;;;2.40;;
16015;SDS011;8112;53.592;10.184;2023-12-28T00:56:25;2.83;;;2.23;;
16015;SDS011;8112;53.592;10.184;2023-12-28T01:01:27;2.87;;;1.90;;
16015;SDS011;8112;53.592;10.184;2023-12-28T01:06:31;3.43;;;2.40;;
16015;SDS011;8112;53.592;10.184;2023-12-28T01:11:35;4.03;;;2.47;;
16015;SDS011;8112;53.592;10.184;2023-12-28T01:16:38;3.40;;;2.30;;
16015;SDS011;8112;53.592;10.184;2023-12-28T01:21:44;3.20;;;2.50;;
16015;SDS011;8112;53.592;10.184;2023-12-28T01:26:48;2.27;;;2.03;;
16015;SDS011;8112;53.592;10.184;2023-12-28T01:31:50;3.67;;;2.53;;
16015;SDS011;8112;53.592;10.184;2023-12-28T01:36:52;3.17;;;2.20;;
16015;SDS011;8112;53.592;10.184;2023-12-28T01:41:55;3.60;;;2.30;;
16015;SDS011;8112;53.592;10.184;2023-12-28T01:46:59;2.50;;;2.20;;
16015;SDS011;8112;53.592;10.184;2023-12-28T01:52:02;5.03;;;2.40;;
16015;SDS011;8112;53.592;10.184;2023-12-28T01:57:09;3.87;;;2.57;;
16015;SDS011;8112;53.592;10.184;2023-12-28T02:02:13;4.03;;;2.70;;
16015;SDS011;8112;53.592;10.184;2023-12-28T02:07:15;3.50;;;2.63;;
16015;SDS011;8112;53.592;10.184;2023-12-28T02:12:21;3.53;;;2.57;;
16015;SDS011;8112;53.592;10.184;2023-12-28T02:17:25;3.50;;;2.70;;
16015;SDS011;8112;53.592;10.184;2023-12-28T02:22:36;4.30;;;2.80;;
16015;SDS011;8112;53.592;10.184;2023-12-28T02:27:42;3.83;;;2.53;;
16015;SDS011;8112;53.592;10.184;2023-12-28T02:32:54;3.10;;;2.80;;
16015;SDS011;8112;53.592;10.184;2023-12-28T02:38:05;6.33;;;3.30;;
16015;SDS011;8112;53.592;10.184;2023-12-28T02:43:13;3.97;;;3.23;;
16015;SDS011;8112;53.592;10.184;2023-12-28T02:48:15;4.30;;;3.27;;
16015;SDS011;8112;53.592;10.184;2023-12-28T02:53:17;4.17;;;3.13;;
16015;SDS011;8112;53.592;10.184;2023-12-28T02:58:20;3.37;;;2.83;;
16015;SDS011;8112;53.592;10.184;2023-12-28T03:03:23;4.73;;;2.80;;
16015;SDS011;8112;53.592;10.184;2023-12-28T03:08:25;4.37;;;2.73;;
16015;SDS011;8112;53.592;10.184;2023-12-28T03:13:28;6.27;;;2.73;;
16015;SDS011;8112;53.592;10.184;2023-12-28T03:18:32;4.00;;;3.20;;
16015;SDS011;8112;53.592;10.184;2023-12-28T03:23:33;4.23;;;3.13;;
16015;SDS011;8112;53.592;10.184;2023-12-28T03:28:37;4.90;;;3.13;;
16015;SDS011;8112;53.592;10.184;2023-12-28T03:33:41;4.07;;;3.23;;
16015;SDS011;8112;53.592;10.184;2023-12-28T03:38:43;4.13;;;3.17;;
16015;SDS011;8112;53.592;10.184;2023-12-28T03:43:46;3.47;;;3.00;;
16015;SDS011;8112;53.592;10.184;2023-12-28T03:48:48;5.93;;;3.20;;
16015;SDS011;8112;53.592;10.184;2023-12-28T03:53:51;5.83;;;3.77;;
16015;SDS011;8112;53.592;10.184;2023-12-28T03:58:57;4.73;;;3.10;;
16015;SDS011;8112;53.592;10.184;2023-12-28T04:04:00;4.33;;;3.10;;
16015;SDS011;8112;53.592;10.184;2023-12-28T04:09:02;4.90;;;2.90;;
16015;SDS011;8112;53.592;10.184;2023-12-28T04:14:06;4.67;;;3.53;;
16015;SDS011;8112;53.592;10.184;2023-12-28T04:19:07;6.03;;;3.50;;
16015;SDS011;8112;53.592;10.184;2023-12-28T04:24:09;3.37;;;3.07;;
16015;SDS011;8112;53.592;10.184;2023-12-28T04:29:13;6.13;;;3.57;;
16015;SDS011;8112;53.592;10.184;2023-12-28T04:34:15;5.70;;;2.97;;
16015;SDS011;8112;53.592;10.184;2023-12-28T04:39:17;3.43;;;3.00;;
16015;SDS011;8112;53.592;10.184;2023-12-28T04:44:21;4.17;;;3.10;;
16015;SDS011;8112;53.592;10.184;2023-12-28T04:49:23;4.20;;;2.93;;
16015;SDS011;8112;53.592;10.184;2023-12-28T04:54:25;4.00;;;2.83;;
16015;SDS011;8112;53.592;10.184;2023-12-28T04:59:29;7.40;;;3.23;;
16015;SDS011;8112;53.592;10.184;2023-12-28T05:04:31;3.50;;;3.10;;
16015;SDS011;8112;53.592;10.184;2023-12-28T05:09:33;2.97;;;2.60;;
16015;SDS011;8112;53.592;10.184;2023-12-28T05:14:37;5.57;;;3.00;;
16015;SDS011;8112;53.592;10.184;2023-12-28T05:19:38;5.67;;;3.00;;
16015;SDS011;8112;53.592;10.184;2023-12-28T05:24:40;3.53;;;2.70;;
16015;SDS011;8112;53.592;10.184;2023-12-28T05:29:44;3.47;;;3.03;;
16015;SDS011;8112;53.592;10.184;2023-12-28T05:34:46;4.97;;;2.97;;
16015;SDS011;8112;53.592;10.184;2023-12-28T05:39:50;4.43;;;3.30;;
16015;SDS011;8112;53.592;10.184;2023-12-28T05:44:53;5.67;;;2.90;;
16015;SDS011;8112;53.592;10.184;2023-12-28T05:49:55;4.47;;;3.00;;
16015;SDS011;8112;53.592;10.184;2023-12-28T05:54:57;4.40;;;3.60;;
16015;SDS011;8112;53.592;10.184;2023-12-28T06:00:00;5.30;;;3.33;;
16015;SDS011;8112;53.592;10.184;2023-12-28T06:05:12;4.77;;;2.97;;
16015;SDS011;8112;53.592;10.184;2023-12-28T06:10:15;6.67;;;3.13;;
16015;SDS011;8112;53.592;10.184;2023-12-28T06:15:20;4.60;;;2.80;;
16015;SDS011;8112;53.592;10.184;2023-12-28T06:20:22;5.20;;;2.93;;
16015;SDS011;8112;53.592;10.184;2023-12-28T06:25:25;3.50;;;2.77;;
16015;SDS011;8112;53.592;10.184;2023-12-28T06:30:28;4.90;;;2.87;;
16015;SDS011;8112;53.592;10.184;2023-12-28T06:35:30;4.13;;;2.90;;
16015;SDS011;8112;53.592;10.184;2023-12-28T06:40:32;4.83;;;2.83;;
16015;SDS011;8112;53.592;10.184;2023-12-28T06:45:35;4.40;;;2.50;;
16015;SDS011;8112;53.592;10.184;2023-12-28T06:50:37;5.40;;;2.90;;
16015;SDS011;8112;53.592;10.184;2023-12-28T06:55:39;4.60;;;2.57;;
16015;SDS011;8112;53.592;10.184;2023-12-28T07:00:43;7.17;;;2.67;;
16015;SDS011;8112;53.592;10.184;2023-12-28T07:05:45;5.03;;;3.07;;
16015;SDS011;8112;53.592;10.184;2023-12-28T07:10:46;3.77;;;2.60;;
16015;SDS011;8112;53.592;10.184;2023-12-28T07:15:50;3.57;;;2.60;;
16015;SDS011;8112;53.592;10.184;2023-12-28T07:20:57;3.70;;;2.70;;
16015;SDS011;8112;53.592;10.184;2023-12-28T07:26:00;4.70;;;2.73;;
16015;SDS011;8112;53.592;10.184;2023-12-28T07:31:05;6.13;;;2.23;;
16015;SDS011;8112;53.592;10.184;2023-12-28T07:36:07;3.73;;;2.80;;
16015;SDS011;8112;53.592;10.184;2023-12-28T07:41:10;5.77;;;2.80;;
16015;SDS011;8112;53.592;10.184;2023-12-28T07:46:13;3.13;;;2.37;;
16015;SDS011;8112;53.592;10.184;2023-12-28T07:51:15;3.63;;;2.50;;
16015;SDS011;8112;53.592;10.184;2023-12-28T07:56:17;5.00;;;2.37;;
16015;SDS011;8112;53.592;10.184;2023-12-28T08:01:24;4.73;;;2.63;;
16015;SDS011;8112;53.592;10.184;2023-12-28T08:06:26;3.77;;;2.60;;
16015;SDS011;8112;53.592;10.184;2023-12-28T08:11:29;3.93;;;2.50;;
16015;SDS011;8112;53.592;10.184;2023-12-28T08:16:32;7.67;;;2.67;;
16015;SDS011;8112;53.592;10.184;2023-12-28T08:21:37;7.27;;;2.47;;
16015;SDS011;8112;53.592;10.184;2023-12-28T08:26:39;7.07;;;2.97;;
16015;SDS011;8112;53.592;10.184;2023-12-28T08:31:43;6.37;;;3.00;;
16015;SDS011;8112;53.592;10.184;2023-12-28T08:36:46;3.50;;;2.00;;
16015;SDS011;8112;53.592;10.184;2023-12-28T08:41:50;5.93;;;2.43;;
16015;SDS011;8112;53.592;10.184;2023-12-28T08:46:55;4.70;;;2.27;;
16015;SDS011;8112;53.592;10.184;2023-12-28T08:51:57;6.17;;;2.47;;
16015;SDS011;8112;53.592;10.184;2023-12-28T08:56:59;3.10;;;2.60;;
16015;SDS011;8112;53.592;10.184;2023-12-28T09:02:02;5.43;;;2.00;;
16015;SDS011;8112;53.592;10.184;2023-12-28T09:07:04;3.03;;;2.20;;
16015;SDS011;8112;53.592;10.184;2023-12-28T09:12:06;5.03;;;2.00;;
16015;SDS011;8112;53.592;10.184;2023-12-28T09:17:10;5.20;;;2.10;;
16015;SDS011;8112;53.592;10.184;2023-12-28T09:22:12;4.93;;;2.27;;
16015;SDS011;8112;53.592;10.184;2023-12-28T09:27:16;6.17;;;2.27;;
16015;SDS011;8112;53.592;10.184;2023-12-28T09:32:22;6.87;;;2.87;;
16015;SDS011;8112;53.592;10.184;2023-12-28T09:37:25;6.67;;;2.20;;
16015;SDS011;8112;53.592;10.184;2023-12-28T09:42:29;4.70;;;2.17;;
16015;SDS011;8112;53.592;10.184;2023-12-28T09:47:36;4.60;;;2.00;;
16015;SDS011;8112;53.592;10.184;2023-12-28T09:52:38;3.73;;;2.13;;
16015;SDS011;8112;53.592;10.184;2023-12-28T09:57:40;7.80;;;2.40;;
16015;SDS011;8112;53.592;10.184;2023-12-28T10:02:44;5.13;;;1.90;;
16015;SDS011;8112;53.592;10.184;2023-12-28T10:07:47;7.43;;;2.27;;
16015;SDS011;8112;53.592;10.184;2023-12-28T10:12:49;5.20;;;2.10;;
16015;SDS011;8112;53.592;10.184;2023-12-28T10:17:53;4.50;;;2.10;;
16015;SDS011;8112;53.592;10.184;2023-12-28T10:22:55;4.67;;;2.20;;
16015;SDS011;8112;53.592;10.184;2023-12-28T10:27:58;6.37;;;2.33;;
16015;SDS011;8112;53.592;10.184;2023-12-28T10:33:09;4.80;;;2.03;;
16015;SDS011;8112;53.592;10.184;2023-12-28T10:38:12;7.40;;;2.47;;
16015;SDS011;8112;53.592;10.184;2023-12-28T10:43:17;4.83;;;2.00;;
16015;SDS011;8112;53.592;10.184;2023-12-28T10:48:27;5.33;;;2.80;;
16015;SDS011;8112;53.592;10.184;2023-12-28T10:53:35;6.07;;;2.00;;
16015;SDS011;8112;53.592;10.184;2023-12-28T10:58:41;5.90;;;2.33;;
16015;SDS011;8112;53.592;10.184;2023-12-28T11:03:52;4.70;;;1.83;;
16015;SDS011;8112;53.592;10.184;2023-12-28T11:09:04;5.90;;;2.23;;
16015;SDS011;8112;53.592;10.184;2023-12-28T11:14:10;3.33;;;1.87;;
16015;SDS011;8112;53.592;10.184;2023-12-28T11:19:16;7.60;;;2.30;;
16015;SDS011;8112;53.592;10.184;2023-12-28T11:24:19;5.47;;;2.00;;
16015;SDS011;8112;53.592;10.184;2023-12-28T11:29:22;10.60;;;2.70;;
16015;SDS011;8112;53.592;10.184;2023-12-28T11:34:26;6.57;;;2.57;;
16015;SDS011;8112;53.592;10.184;2023-12-28T11:39:30;6.77;;;2.27;;
16015;SDS011;8112;53.592;10.184;2023-12-28T11:44:37;8.57;;;2.57;;
16015;SDS011;8112;53.592;10.184;2023-12-28T11:49:43;5.33;;;2.37;;
16015;SDS011;8112;53.592;10.184;2023-12-28T11:54:48;9.43;;;2.57;;
16015;SDS011;8112;53.592;10.184;2023-12-28T11:59:53;8.37;;;2.70;;
16015;SDS011;8112;53.592;10.184;2023-12-28T12:05:00;7.20;;;2.63;;
16015;SDS011;8112;53.592;10.184;2023-12-28T12:10:03;5.37;;;2.20;;
16015;SDS011;8112;53.592;10.184;2023-12-28T12:15:06;8.83;;;3.80;;
16015;SDS011;8112;53.592;10.184;2023-12-28T12:20:12;8.23;;;3.50;;
16015;SDS011;8112;53.592;10.184;2023-12-28T12:25:14;7.33;;;2.70;;
16015;SDS011;8112;53.592;10.184;2023-12-28T12:30:19;9.10;;;2.33;;
16015;SDS011;8112;53.592;10.184;2023-12-28T12:35:23;8.00;;;2.83;;
16015;SDS011;8112;53.592;10.184;2023-12-28T12:40:25;9.03;;;2.33;;
16015;SDS011;8112;53.592;10.184;2023-12-28T12:45:27;6.23;;;2.50;;
16015;SDS011;8112;53.592;10.184;2023-12-28T12:50:30;7.20;;;2.10;;
16015;SDS011;8112;53.592;10.184;2023-12-28T12:55:33;6.77;;;2.87;;
16015;SDS011;8112;53.592;10.184;2023-12-28T13:00:40;9.10;;;2.50;;
16015;SDS011;8112;53.592;10.184;2023-12-28T13:05:45;8.30;;;3.20;;
16015;SDS011;8112;53.592;10.184;2023-12-28T13:10:47;10.93;;;2.50;;
16015;SDS011;8112;53.592;10.184;2023-12-28T13:15:49;8.80;;;2.37;;
16015;SDS011;8112;53.592;10.184;2023-12-28T13:20:53;8.73;;;2.30;;
16015;SDS011;8112;53.592;10.184;2023-12-28T13:25:55;5.47;;;2.30;;
16015;SDS011;8112;53.592;10.184;2023-12-28T13:30:57;9.90;;;2.00;;
16015;SDS011;8112;53.592;10.184;2023-12-28T13:36:00;8.33;;;2.77;;
16015;SDS011;8112;53.592;10.184;2023-12-28T13:41:02;7.27;;;2.63;;
16015;SDS011;8112;53.592;10.184;2023-12-28T13:46:05;6.87;;;2.57;;
16015;SDS011;8112;53.592;10.184;2023-12-28T13:51:08;8.00;;;2.60;;
16015;SDS011;8112;53.592;10.184;2023-12-28T13:56:10;10.00;;;2.60;;
16015;SDS011;8112;53.592;10.184;2023-12-28T14:01:12;8.47;;;2.70;;
16015;SDS011;8112;53.592;10.184;2023-12-28T14:06:16;8.17;;;2.70;;
16015;SDS011;8112;53.592;10.184;2023-12-28T14:11:18;10.77;;;3.13;;
16015;SDS011;8112;53.592;10.184;2023-12-28T14:16:21;6.87;;;2.47;;
16015;SDS011;8112;53.592;10.184;2023-12-28T14:21:25;7.33;;;2.43;;
16015;SDS011;8112;53.592;10.184;2023-12-28T14:26:28;8.70;;;2.47;;
16015;SDS011;8112;53.592;10.184;2023-12-28T14:31:30;5.80;;;2.30;;
16015;SDS011;8112;53.592;10.184;2023-12-28T14:36:34;5.10;;;2.00;;
16015;SDS011;8112;53.592;10.184;2023-12-28T14:41:37;8.20;;;2.50;;
16015;SDS011;8112;53.592;10.184;2023-12-28T14:46:39;9.50;;;2.77;;
16015;SDS011;8112;53.592;10.184;2023-12-28T14:51:43;10.53;;;2.57;;
16015;SDS011;8112;53.592;10.184;2023-12-28T14:56:45;9.50;;;3.93;;
16015;SDS011;8112;53.592;10.184;2023-12-28T15:01:48;12.57;;;2.70;;
16015;SDS011;8112;53.592;10.184;2023-12-28T15:06:52;9.17;;;3.13;;
16015;SDS011;8112;53.592;10.184;2023-12-28T15:11:54;9.13;;;2.47;;
16015;SDS011;8112;53.592;10.184;2023-12-28T15:16:56;11.67;;;2.47;;
16015;SDS011;8112;53.592;10.184;2023-12-28T15:22:01;10.40;;;2.87;;
16015;SDS011;8112;53.592;10.184;2023-12-28T15:27:03;11.87;;;3.90;;
16015;SDS011;8112;53.592;10.184;2023-12-28T15:32:08;9.17;;;2.63;;
16015;SDS011;8112;53.592;10.184;2023-12-28T15:37:11;9.43;;;3.10;;
16015;SDS011;8112;53.592;10.184;2023-12-28T15:42:13;10.07;;;2.87;;
16015;SDS011;8112;53.592;10.184;2023-12-28T15:47:15;10.77;;;3.20;;
16015;SDS011;8112;53.592;10.184;2023-12-28T15:52:19;10.93;;;3.07;;
16015;SDS011;8112;53.592;10.184;2023-12-28T15:57:22;10.80;;;3.00;;
16015;SDS011;8112;53.592;10.184;2023-12-28T16:02:26;8.77;;;2.73;;
16015;SDS011;8112;53.592;10.184;2023-12-28T16:07:30;8.93;;;2.70;;
16015;SDS011;8112;53.592;10.184;2023-12-28T16:12:31;8.43;;;2.53;;
16015;SDS011;8112;53.592;10.184;2023-12-28T16:17:33;11.10;;;3.00;;
16015;SDS011;8112;53.592;10.184;2023-12-28T16:22:38;8.77;;;2.40;;
16015;SDS011;8112;53.592;10.184;2023-12-28T16:27:40;11.23;;;2.83;;
16015;SDS011;8112;53.592;10.184;2023-12-28T16:32:44;12.60;;;2.87;;
16015;SDS011;8112;53.592;10.184;2023-12-28T16:37:50;7.43;;;2.40;;
16015;SDS011;8112;53.592;10.184;2023-12-28T16:42:52;9.43;;;2.57;;
16015;SDS011;8112;53.592;10.184;2023-12-28T16:47:54;8.20;;;2.40;;
16015;SDS011;8112;53.592;10.184;2023-12-28T16:52:59;11.03;;;3.40;;
16015;SDS011;8112;53.592;10.184;2023-12-28T16:58:01;9.47;;;2.63;;
16015;SDS011;8112;53.592;10.184;2023-12-28T17:03:05;12.90;;;3.47;;
16015;SDS011;8112;53.592;10.184;2023-12-28T17:08:09;6.67;;;2.43;;
16015;SDS011;8112;53.592;10.184;2023-12-28T17:13:11;11.00;;;3.30;;
16015;SDS011;8112;53.592;10.184;2023-12-28T17:18:14;7.17;;;2.70;;
16015;SDS011;8112;53.592;10.184;2023-12-28T17:23:25;9.27;;;3.20;;
16015;SDS011;8112;53.592;10.184;2023-12-28T17:28:34;12.47;;;3.00;;
16015;SDS011;8112;53.592;10.184;2023-12-28T17:33:42;8.63;;;3.07;;
16015;SDS011;8112;53.592;10.184;2023-12-28T17:38:47;13.63;;;3.03;;
16015;SDS011;8112;53.592;10.184;2023-12-28T17:43:52;5.33;;;2.47;;
16015;SDS011;8112;53.592;10.184;2023-12-28T17:48:58;15.47;;;4.20;;
16015;SDS011;8112;53.592;10.184;2023-12-28T17:54:03;7.93;;;3.23;;
16015;SDS011;8112;53.592;10.184;2023-12-28T17:59:05;10.27;;;3.10;;
16015;SDS011;8112;53.592;10.184;2023-12-28T18:04:08;7.53;;;2.97;;
16015;SDS011;8112;53.592;10.184;2023-12-28T18:09:11;7.17;;;2.70;;
16015;SDS011;8112;53.592;10.184;2023-12-28T18:14:14;9.47;;;2.37;;
16015;SDS011;8112;53.592;10.184;2023-12-28T18:19:15;10.87;;;2.97;;
16015;SDS011;8112;53.592;10.184;2023-12-28T18:24:19;10.17;;;2.67;;
16015;SDS011;8112;53.592;10.184;2023-12-28T18:29:21;8.03;;;2.33;;
16015;SDS011;8112;53.592;10.184;2023-12-28T18:34:23;11.17;;;2.77;;
16015;SDS011;8112;53.592;10.184;2023-12-28T18:39:28;11.33;;;2.97;;
16015;SDS011;8112;53.592;10.184;2023-12-28T18:44:31;13.47;;;3.33;;
16015;SDS011;8112;53.592;10.184;2023-12-28T18:49:37;10.37;;;2.47;;
16015;SDS011;8112;53.592;10.184;2023-12-28T18:54:40;11.63;;;2.83;;
16015;SDS011;8112;53.592;10.184;2023-12-28T18:59:42;8.47;;;2.97;;
16015;SDS011;8112;53.592;10.184;2023-12-28T19:04:44;10.77;;;2.57;;
16015;SDS011;8112;53.592;10.184;2023-12-28T19:09:49;12.43;;;2.90;;
16015;SDS011;8112;53.592;10.184;2023-12-28T19:14:51;10.23;;;3.33;;
16015;SDS011;8112;53.592;10.184;2023-12-28T19:19:55;6.77;;;2.10;;
16015;SDS011;8112;53.592;10.184;2023-12-28T19:24:59;7.37;;;2.43;;
16015;SDS011;8112;53.592;10.184;2023-12-28T19:30:02;8.57;;;2.67;;
16015;SDS011;8112;53.592;10.184;2023-12-28T19:35:06;9.43;;;2.70;;
16015;SDS011;8112;53.592;10.184;2023-12-28T19:40:13;9.97;;;2.87;;
16015;SDS011;8112;53.592;10.184;2023-12-28T19:45:17;9.40;;;2.40;;
16015;SDS011;8112;53.592;10.184;2023-12-28T19:50:19;11.17;;;3.17;;
16015;SDS011;8112;53.592;10.184;2023-12-28T19:55:25;9.57;;;2.63;;
16015;SDS011;8112;53.592;10.184;2023-12-28T20:00:27;12.10;;;3.20;;
16015;SDS011;8112;53.592;10.184;2023-12-28T20:05:31;8.90;;;2.13;;
16015;SDS011;8112;53.592;10.184;2023-12-28T20:10:34;3.97;;;1.87;;
16015;SDS011;8112;53.592;10.184;2023-12-28T20:15:36;7.27;;;2.93;;
16015;SDS011;8112;53.592;10.184;2023-12-28T20:20:39;6.77;;;2.30;;
16015;SDS011;8112;53.592;10.184;2023-12-28T20:25:42;7.83;;;2.50;;
16015;SDS011;8112;53.592;10.184;2023-12-28T20:30:45;9.43;;;2.70;;
16015;SDS011;8112;53.592;10.184;2023-12-28T20:35:47;10.80;;;2.97;;
16015;SDS011;8112;53.592;10.184;2023-12-28T20:40:50;7.60;;;2.33;;
16015;SDS011;8112;53.592;10.184;2023-12-28T20:45:52;6.77;;;2.63;;
16015;SDS011;8112;53.592;10.184;2023-12-28T20:50:55;8.30;;;2.70;;
16015;SDS011;8112;53.592;10.184;2023-12-28T20:55:58;5.30;;;2.00;;
16015;SDS011;8112;53.592;10.184;2023-12-28T21:01:00;9.13;;;2.50;;
16015;SDS011;8112;53.592;10.184;2023-12-28T21:06:02;9.80;;;3.00;;
16015;SDS011;8112;53.592;10.184;2023-12-28T21:11:06;7.40;;;2.53;;
16015;SDS011;8112;53.592;10.184;2023-12-28T21:16:08;5.47;;;2.13;;
16015;SDS011;8112;53.592;10.184;2023-12-28T21:21:10;4.80;;;2.07;;
16015;SDS011;8112;53.592;10.184;2023-12-28T21:26:13;8.43;;;2.50;;
16015;SDS011;8112;53.592;10.184;2023-12-28T21:31:15;8.10;;;3.10;;
16015;SDS011;8112;53.592;10.184;2023-12-28T21:36:17;9.40;;;2.17;;
16015;SDS011;8112;53.592;10.184;2023-12-28T21:41:21;7.07;;;1.93;;
16015;SDS011;8112;53.592;10.184;2023-12-28T21:46:23;13.33;;;2.77;;
16015;SDS011;8112;53.592;10.184;2023-12-28T21:51:26;3.37;;;1.80;;
16015;SDS011;8112;53.592;10.184;2023-12-28T21:56:31;5.97;;;1.77;;
16015;SDS011;8112;53.592;10.184;2023-12-28T22:01:33;5.30;;;2.00;;
16015;SDS011;8112;53.592;10.184;2023-12-28T22:06:35;4.50;;;2.33;;
16015;SDS011;8112;53.592;10.184;2023-12-28T22:11:39;5.47;;;2.20;;
16015;SDS011;8112;53.592;10.184;2023-12-28T22:16:40;9.50;;;2.17;;
16015;SDS011;8112;53.592;10.184;2023-12-28T22:21:42;5.97;;;1.70;;
16015;SDS011;8112;53.592;10.184;2023-12-28T22:26:46;8.23;;;2.20;;
16015;SDS011;8112;53.592;10.184;2023-12-28T22:31:48;9.27;;;2.30;;
16015;SDS011;8112;53.592;10.184;2023-12-28T22:36:51;7.60;;;2.30;;
16015;SDS011;8112;53.592;10.184;2023-12-28T22:41:55;6.00;;;2.20;;
16015;SDS011;8112;53.592;10.184;2023-12-28T22:46:57;6.20;;;2.10;;
16015;SDS011;8112;53.592;10.184;2023-12-28T22:51:59;5.17;;;2.07;;
16015;SDS011;8112;53.592;10.184;2023-12-28T22:57:03;6.10;;;2.30;;
16015;SDS011;8112;53.592;10.184;2023-12-28T23:02:05;6.20;;;2.10;;
16015;SDS011;8112;53.592;10.184;2023-12-28T23:07:07;7.97;;;1.93;;
16015;SDS011;8112;53.592;10.184;2023-12-28T23:12:10;3.90;;;1.93;;
16015;SDS011;8112;53.592;10.184;2023-12-28T23:17:12;7.17;;;2.30;;
16015;SDS011;8112;53.592;10.184;2023-12-28T23:22:15;6.80;;;2.27;;
16015;SDS011;8112;53.592;10.184;2023-12-28T23:27:18;5.47;;;1.70;;
16015;SDS011;8112;53.592;10.184;2023-12-28T23:32:20;4.97;;;1.93;;
16015;SDS011;8112;53.592;10.184;2023-12-28T23:37:22;5.63;;;2.20;;
16015;SDS011;8112;53.592;10.184;2023-12-28T23:42:26;4.23;;;2.20;;
16015;SDS011;8112;53.592;10.184;2023-12-28T23:47:28;8.37;;;2.57;;
16015;SDS011;8112;53.592;10.184;2023-12-28T23:52:30;7.17;;;1.90;;
16015;SDS011;8112;53.592;10.184;2023-12-28T23:57:34;5.93;;;2.00;;
